sensor_id;sensor_type;location;lat;lon;timestamp;P1;durP1;ratioP1;P2;durP2;ratioP2
39016;SDS011;24784;45.582;5.276;2023-09-19T00:00:29;18.42;;;3.47;;
39016;SDS011;24784;45.582;5.276;2023-09-19T00:02:57;10.55;;;3.20;;
39016;SDS011;24784;45.582;5.276;2023-09-19T00:05:29;8.07;;;3.47;;
39016;SDS011;24784;45.582;5.276;2023-09-19T00:07:58;12.93;;;3.60;;
39016;SDS011;24784;45.582;5.276;2023-09-19T00:10:27;10.23;;;3.42;;
39016;SDS011;24784;45.582;5.276;2023-09-19T00:12:56;8.63;;;3.00;;
39016;SDS011;24784;45.582;5.276;2023-09-19T00:15:23;12.32;;;3.60;;
39016;SDS011;24784;45.582;5.276;2023-09-19T00:17:51;8.95;;;3.20;;
39016;SDS011;24784;45.582;5.276;2023-09-19T00:20:20;8.82;;;3.47;;
39016;SDS011;24784;45.582;5.276;2023-09-19T00:22:48;18.38;;;3.97;;
39016;SDS011;24784;45.582;5.276;2023-09-19T00:25:18;16.45;;;3.63;;
39016;SDS011;24784;45.582;5.276;2023-09-19T00:27:47;13.40;;;3.10;;
39016;SDS011;24784;45.582;5.276;2023-09-19T00:30:15;13.45;;;5.22;;
39016;SDS011;24784;45.582;5.276;2023-09-19T00:32:44;5.05;;;3.15;;
39016;SDS011;24784;45.582;5.276;2023-09-19T00:35:12;14.10;;;4.32;;
39016;SDS011;24784;45.582;5.276;2023-09-19T00:37:41;7.60;;;3.78;;
39016;SDS011;24784;45.582;5.276;2023-09-19T00:40:07;13.20;;;3.53;;
39016;SDS011;24784;45.582;5.276;2023-09-19T00:42:37;10.32;;;3.65;;
39016;SDS011;24784;45.582;5.276;2023-09-19T00:45:13;7.15;;;3.85;;
39016;SDS011;24784;45.582;5.276;2023-09-19T00:47:44;19.27;;;3.50;;
39016;SDS011;24784;45.582;5.276;2023-09-19T00:50:13;9.55;;;4.55;;
39016;SDS011;24784;45.582;5.276;2023-09-19T00:52:42;10.07;;;3.55;;
39016;SDS011;24784;45.582;5.276;2023-09-19T00:55:09;17.10;;;5.35;;
39016;SDS011;24784;45.582;5.276;2023-09-19T00:57:36;14.70;;;3.80;;
39016;SDS011;24784;45.582;5.276;2023-09-19T01:00:04;9.77;;;4.13;;
39016;SDS011;24784;45.582;5.276;2023-09-19T01:02:32;10.60;;;3.97;;
39016;SDS011;24784;45.582;5.276;2023-09-19T01:04:59;18.55;;;4.20;;
39016;SDS011;24784;45.582;5.276;2023-09-19T01:07:26;8.32;;;4.18;;
39016;SDS011;24784;45.582;5.276;2023-09-19T01:09:55;11.38;;;4.60;;
39016;SDS011;24784;45.582;5.276;2023-09-19T01:12:26;10.52;;;3.90;;
39016;SDS011;24784;45.582;5.276;2023-09-19T01:17:57;9.52;;;4.30;;
39016;SDS011;24784;45.582;5.276;2023-09-19T01:23:22;12.82;;;4.38;;
39016;SDS011;24784;45.582;5.276;2023-09-19T01:29:12;13.77;;;3.78;;
39016;SDS011;24784;45.582;5.276;2023-09-19T01:32:01;8.98;;;3.78;;
39016;SDS011;24784;45.582;5.276;2023-09-19T01:34:48;14.73;;;4.53;;
39016;SDS011;24784;45.582;5.276;2023-09-19T01:37:15;12.73;;;3.95;;
39016;SDS011;24784;45.582;5.276;2023-09-19T01:39:49;12.63;;;3.60;;
39016;SDS011;24784;45.582;5.276;2023-09-19T01:42:24;11.70;;;3.78;;
39016;SDS011;24784;45.582;5.276;2023-09-19T01:45:07;18.88;;;4.30;;
39016;SDS011;24784;45.582;5.276;2023-09-19T01:48:00;13.85;;;3.83;;
39016;SDS011;24784;45.582;5.276;2023-09-19T01:50:34;10.95;;;3.42;;
39016;SDS011;24784;45.582;5.276;2023-09-19T01:53:28;11.43;;;3.70;;
39016;SDS011;24784;45.582;5.276;2023-09-19T01:56:00;15.02;;;3.40;;
39016;SDS011;24784;45.582;5.276;2023-09-19T01:58:29;9.82;;;4.38;;
39016;SDS011;24784;45.582;5.276;2023-09-19T02:01:11;12.80;;;3.58;;
39016;SDS011;24784;45.582;5.276;2023-09-19T02:03:40;8.93;;;3.55;;
39016;SDS011;24784;45.582;5.276;2023-09-19T02:06:06;13.00;;;4.20;;
39016;SDS011;24784;45.582;5.276;2023-09-19T02:08:36;9.35;;;3.78;;
39016;SDS011;24784;45.582;5.276;2023-09-19T02:11:02;9.95;;;3.50;;
39016;SDS011;24784;45.582;5.276;2023-09-19T02:13:28;12.07;;;3.22;;
39016;SDS011;24784;45.582;5.276;2023-09-19T02:15:56;12.27;;;3.15;;
39016;SDS011;24784;45.582;5.276;2023-09-19T02:18:22;11.32;;;3.53;;
39016;SDS011;24784;45.582;5.276;2023-09-19T02:20:48;9.93;;;3.55;;
39016;SDS011;24784;45.582;5.276;2023-09-19T02:23:16;12.65;;;3.13;;
39016;SDS011;24784;45.582;5.276;2023-09-19T02:25:42;12.90;;;3.15;;
39016;SDS011;24784;45.582;5.276;2023-09-19T02:28:09;12.82;;;3.40;;
39016;SDS011;24784;45.582;5.276;2023-09-19T02:30:34;11.13;;;4.10;;
39016;SDS011;24784;45.582;5.276;2023-09-19T02:33:01;5.28;;;3.17;;
39016;SDS011;24784;45.582;5.276;2023-09-19T02:35:27;11.65;;;2.85;;
39016;SDS011;24784;45.582;5.276;2023-09-19T02:37:53;10.48;;;3.42;;
39016;SDS011;24784;45.582;5.276;2023-09-19T02:40:19;11.60;;;4.30;;
39016;SDS011;24784;45.582;5.276;2023-09-19T02:42:47;9.30;;;3.65;;
39016;SDS011;24784;45.582;5.276;2023-09-19T02:45:17;14.38;;;3.63;;
39016;SDS011;24784;45.582;5.276;2023-09-19T02:47:46;13.45;;;3.97;;
39016;SDS011;24784;45.582;5.276;2023-09-19T02:50:13;7.82;;;3.67;;
39016;SDS011;24784;45.582;5.276;2023-09-19T02:52:45;14.25;;;3.70;;
39016;SDS011;24784;45.582;5.276;2023-09-19T02:55:13;7.38;;;3.75;;
39016;SDS011;24784;45.582;5.276;2023-09-19T02:57:49;14.75;;;4.65;;
39016;SDS011;24784;45.582;5.276;2023-09-19T03:00:16;19.43;;;5.87;;
39016;SDS011;24784;45.582;5.276;2023-09-19T03:02:50;10.50;;;4.90;;
39016;SDS011;24784;45.582;5.276;2023-09-19T03:05:18;12.10;;;5.28;;
39016;SDS011;24784;45.582;5.276;2023-09-19T03:07:44;15.15;;;6.50;;
39016;SDS011;24784;45.582;5.276;2023-09-19T03:10:12;23.98;;;7.13;;
39016;SDS011;24784;45.582;5.276;2023-09-19T03:12:40;15.00;;;7.63;;
39016;SDS011;24784;45.582;5.276;2023-09-19T03:15:06;14.05;;;6.97;;
39016;SDS011;24784;45.582;5.276;2023-09-19T03:17:33;13.57;;;7.57;;
39016;SDS011;24784;45.582;5.276;2023-09-19T03:19:59;13.77;;;7.30;;
39016;SDS011;24784;45.582;5.276;2023-09-19T03:22:26;17.50;;;6.40;;
39016;SDS011;24784;45.582;5.276;2023-09-19T03:24:52;12.80;;;5.72;;
39016;SDS011;24784;45.582;5.276;2023-09-19T03:27:18;18.10;;;5.72;;
39016;SDS011;24784;45.582;5.276;2023-09-19T03:29:45;15.70;;;5.35;;
39016;SDS011;24784;45.582;5.276;2023-09-19T03:32:11;13.43;;;5.30;;
39016;SDS011;24784;45.582;5.276;2023-09-19T03:34:37;13.18;;;4.75;;
39016;SDS011;24784;45.582;5.276;2023-09-19T03:37:08;12.85;;;4.88;;
39016;SDS011;24784;45.582;5.276;2023-09-19T03:39:34;10.43;;;3.63;;
39016;SDS011;24784;45.582;5.276;2023-09-19T03:42:01;12.60;;;4.45;;
39016;SDS011;24784;45.582;5.276;2023-09-19T03:44:32;5.93;;;3.92;;
39016;SDS011;24784;45.582;5.276;2023-09-19T03:46:57;5.35;;;2.80;;
39016;SDS011;24784;45.582;5.276;2023-09-19T03:49:23;11.95;;;3.03;;
39016;SDS011;24784;45.582;5.276;2023-09-19T03:51:49;7.47;;;2.60;;
39016;SDS011;24784;45.582;5.276;2023-09-19T03:54:14;6.93;;;2.92;;
39016;SDS011;24784;45.582;5.276;2023-09-19T03:56:42;3.88;;;2.10;;
39016;SDS011;24784;45.582;5.276;2023-09-19T03:59:08;5.57;;;2.20;;
39016;SDS011;24784;45.582;5.276;2023-09-19T04:01:34;3.13;;;2.10;;
39016;SDS011;24784;45.582;5.276;2023-09-19T04:04:00;5.07;;;1.70;;
39016;SDS011;24784;45.582;5.276;2023-09-19T04:06:33;2.25;;;1.52;;
39016;SDS011;24784;45.582;5.276;2023-09-19T04:09:03;4.22;;;1.60;;
39016;SDS011;24784;45.582;5.276;2023-09-19T04:11:32;4.85;;;1.60;;
39016;SDS011;24784;45.582;5.276;2023-09-19T04:13:58;2.90;;;1.60;;
39016;SDS011;24784;45.582;5.276;2023-09-19T04:16:24;5.88;;;1.60;;
39016;SDS011;24784;45.582;5.276;2023-09-19T04:18:50;3.47;;;1.50;;
39016;SDS011;24784;45.582;5.276;2023-09-19T04:21:16;2.55;;;1.50;;
39016;SDS011;24784;45.582;5.276;2023-09-19T04:23:42;5.57;;;1.52;;
39016;SDS011;24784;45.582;5.276;2023-09-19T04:26:08;5.28;;;1.40;;
39016;SDS011;24784;45.582;5.276;2023-09-19T04:28:33;6.47;;;1.60;;
39016;SDS011;24784;45.582;5.276;2023-09-19T04:31:01;7.40;;;1.58;;
39016;SDS011;24784;45.582;5.276;2023-09-19T04:33:27;6.07;;;2.20;;
39016;SDS011;24784;45.582;5.276;2023-09-19T04:35:52;2.55;;;1.77;;
39016;SDS011;24784;45.582;5.276;2023-09-19T04:38:18;4.43;;;2.03;;
39016;SDS011;24784;45.582;5.276;2023-09-19T04:40:45;9.48;;;2.33;;
39016;SDS011;24784;45.582;5.276;2023-09-19T04:43:11;8.40;;;2.30;;
39016;SDS011;24784;45.582;5.276;2023-09-19T04:45:37;6.55;;;2.40;;
39016;SDS011;24784;45.582;5.276;2023-09-19T04:48:04;3.08;;;2.20;;
39016;SDS011;24784;45.582;5.276;2023-09-19T04:50:31;5.93;;;2.30;;
39016;SDS011;24784;45.582;5.276;2023-09-19T04:52:59;18.65;;;2.70;;
39016;SDS011;24784;45.582;5.276;2023-09-19T04:55:26;2.70;;;1.90;;
39016;SDS011;24784;45.582;5.276;2023-09-19T04:57:51;5.25;;;2.47;;
39016;SDS011;24784;45.582;5.276;2023-09-19T05:00:21;4.90;;;2.10;;
39016;SDS011;24784;45.582;5.276;2023-09-19T05:02:49;4.75;;;2.00;;
39016;SDS011;24784;45.582;5.276;2023-09-19T05:05:16;7.45;;;2.67;;
39016;SDS011;24784;45.582;5.276;2023-09-19T05:07:44;3.88;;;1.85;;
39016;SDS011;24784;45.582;5.276;2023-09-19T05:10:10;5.97;;;1.98;;
39016;SDS011;24784;45.582;5.276;2023-09-19T05:12:37;6.13;;;2.20;;
39016;SDS011;24784;45.582;5.276;2023-09-19T05:15:03;7.07;;;2.08;;
39016;SDS011;24784;45.582;5.276;2023-09-19T05:17:32;7.03;;;2.20;;
39016;SDS011;24784;45.582;5.276;2023-09-19T05:20:01;6.43;;;2.05;;
39016;SDS011;24784;45.582;5.276;2023-09-19T05:22:41;2.88;;;1.80;;
39016;SDS011;24784;45.582;5.276;2023-09-19T05:25:08;11.60;;;1.80;;
39016;SDS011;24784;45.582;5.276;2023-09-19T05:27:35;5.75;;;1.75;;
39016;SDS011;24784;45.582;5.276;2023-09-19T05:30:00;4.45;;;1.95;;
39016;SDS011;24784;45.582;5.276;2023-09-19T05:32:26;5.82;;;1.88;;
39016;SDS011;24784;45.582;5.276;2023-09-19T05:34:52;8.73;;;1.98;;
39016;SDS011;24784;45.582;5.276;2023-09-19T05:37:21;3.53;;;1.73;;
39016;SDS011;24784;45.582;5.276;2023-09-19T05:39:48;4.78;;;1.95;;
39016;SDS011;24784;45.582;5.276;2023-09-19T05:42:14;3.65;;;1.88;;
39016;SDS011;24784;45.582;5.276;2023-09-19T05:44:40;5.05;;;1.83;;
39016;SDS011;24784;45.582;5.276;2023-09-19T05:47:05;11.07;;;1.88;;
39016;SDS011;24784;45.582;5.276;2023-09-19T05:49:34;9.68;;;2.72;;
39016;SDS011;24784;45.582;5.276;2023-09-19T05:52:06;8.90;;;1.90;;
39016;SDS011;24784;45.582;5.276;2023-09-19T05:54:31;11.75;;;1.92;;
39016;SDS011;24784;45.582;5.276;2023-09-19T05:56:59;3.30;;;1.90;;
39016;SDS011;24784;45.582;5.276;2023-09-19T05:59:25;4.63;;;1.50;;
39016;SDS011;24784;45.582;5.276;2023-09-19T06:01:51;5.05;;;1.40;;
39016;SDS011;24784;45.582;5.276;2023-09-19T06:04:17;4.75;;;1.40;;
39016;SDS011;24784;45.582;5.276;2023-09-19T06:06:44;9.98;;;2.63;;
39016;SDS011;24784;45.582;5.276;2023-09-19T06:09:10;5.03;;;1.30;;
39016;SDS011;24784;45.582;5.276;2023-09-19T06:11:36;5.07;;;1.58;;
39016;SDS011;24784;45.582;5.276;2023-09-19T06:14:02;6.25;;;1.83;;
39016;SDS011;24784;45.582;5.276;2023-09-19T06:16:29;5.32;;;1.58;;
39016;SDS011;24784;45.582;5.276;2023-09-19T06:18:55;3.47;;;1.50;;
39016;SDS011;24784;45.582;5.276;2023-09-19T06:21:23;7.63;;;1.67;;
39016;SDS011;24784;45.582;5.276;2023-09-19T06:23:49;4.72;;;1.50;;
39016;SDS011;24784;45.582;5.276;2023-09-19T06:26:15;7.82;;;1.77;;
39016;SDS011;24784;45.582;5.276;2023-09-19T06:28:42;3.65;;;1.50;;
39016;SDS011;24784;45.582;5.276;2023-09-19T06:31:09;4.05;;;1.88;;
39016;SDS011;24784;45.582;5.276;2023-09-19T06:33:38;3.60;;;2.40;;
39016;SDS011;24784;45.582;5.276;2023-09-19T06:36:04;6.65;;;1.50;;
39016;SDS011;24784;45.582;5.276;2023-09-19T06:38:31;4.43;;;1.80;;
39016;SDS011;24784;45.582;5.276;2023-09-19T06:40:59;6.95;;;1.85;;
39016;SDS011;24784;45.582;5.276;2023-09-19T06:43:26;3.78;;;1.90;;
39016;SDS011;24784;45.582;5.276;2023-09-19T06:45:53;7.93;;;2.13;;
39016;SDS011;24784;45.582;5.276;2023-09-19T06:48:19;7.55;;;1.70;;
39016;SDS011;24784;45.582;5.276;2023-09-19T06:50:46;6.55;;;1.70;;
39016;SDS011;24784;45.582;5.276;2023-09-19T06:53:13;7.78;;;2.03;;
39016;SDS011;24784;45.582;5.276;2023-09-19T06:55:39;6.18;;;1.92;;
39016;SDS011;24784;45.582;5.276;2023-09-19T06:58:05;7.68;;;1.70;;
39016;SDS011;24784;45.582;5.276;2023-09-19T07:00:31;9.90;;;1.90;;
39016;SDS011;24784;45.582;5.276;2023-09-19T07:03:05;6.18;;;1.95;;
39016;SDS011;24784;45.582;5.276;2023-09-19T07:05:36;10.48;;;2.25;;
39016;SDS011;24784;45.582;5.276;2023-09-19T07:08:07;5.20;;;1.80;;
39016;SDS011;24784;45.582;5.276;2023-09-19T07:10:37;4.18;;;1.60;;
39016;SDS011;24784;45.582;5.276;2023-09-19T07:13:06;5.82;;;1.70;;
39016;SDS011;24784;45.582;5.276;2023-09-19T07:15:35;10.95;;;2.00;;
39016;SDS011;24784;45.582;5.276;2023-09-19T07:18:04;9.82;;;2.03;;
39016;SDS011;24784;45.582;5.276;2023-09-19T07:20:30;7.40;;;2.42;;
39016;SDS011;24784;45.582;5.276;2023-09-19T07:22:57;7.00;;;1.88;;
39016;SDS011;24784;45.582;5.276;2023-09-19T07:25:26;6.25;;;2.10;;
39016;SDS011;24784;45.582;5.276;2023-09-19T07:27:56;4.68;;;1.70;;
39016;SDS011;24784;45.582;5.276;2023-09-19T07:30:25;7.25;;;1.77;;
39016;SDS011;24784;45.582;5.276;2023-09-19T07:32:51;8.73;;;1.88;;
39016;SDS011;24784;45.582;5.276;2023-09-19T07:35:17;3.22;;;1.77;;
39016;SDS011;24784;45.582;5.276;2023-09-19T07:37:45;6.82;;;1.73;;
39016;SDS011;24784;45.582;5.276;2023-09-19T07:40:15;4.80;;;1.75;;
39016;SDS011;24784;45.582;5.276;2023-09-19T07:42:41;7.18;;;1.48;;
39016;SDS011;24784;45.582;5.276;2023-09-19T07:45:09;4.25;;;1.35;;
39016;SDS011;24784;45.582;5.276;2023-09-19T07:47:39;7.03;;;2.15;;
39016;SDS011;24784;45.582;5.276;2023-09-19T07:50:08;6.50;;;1.70;;
39016;SDS011;24784;45.582;5.276;2023-09-19T07:52:34;10.63;;;1.52;;
39016;SDS011;24784;45.582;5.276;2023-09-19T07:55:00;6.40;;;1.65;;
39016;SDS011;24784;45.582;5.276;2023-09-19T07:57:31;5.53;;;1.60;;
39016;SDS011;24784;45.582;5.276;2023-09-19T07:59:59;5.18;;;1.50;;
39016;SDS011;24784;45.582;5.276;2023-09-19T08:02:25;3.75;;;1.58;;
39016;SDS011;24784;45.582;5.276;2023-09-19T08:04:51;4.45;;;2.15;;
39016;SDS011;24784;45.582;5.276;2023-09-19T08:07:17;2.63;;;1.40;;
39016;SDS011;24784;45.582;5.276;2023-09-19T08:09:43;5.38;;;2.00;;
39016;SDS011;24784;45.582;5.276;2023-09-19T08:12:13;5.00;;;1.60;;
39016;SDS011;24784;45.582;5.276;2023-09-19T08:14:40;6.47;;;1.75;;
39016;SDS011;24784;45.582;5.276;2023-09-19T08:17:08;17.08;;;2.20;;
39016;SDS011;24784;45.582;5.276;2023-09-19T08:19:34;8.95;;;2.17;;
39016;SDS011;24784;45.582;5.276;2023-09-19T08:22:01;6.38;;;2.20;;
39016;SDS011;24784;45.582;5.276;2023-09-19T08:24:28;8.15;;;1.77;;
39016;SDS011;24784;45.582;5.276;2023-09-19T08:26:54;3.85;;;1.58;;
39016;SDS011;24784;45.582;5.276;2023-09-19T08:29:20;3.55;;;1.48;;
39016;SDS011;24784;45.582;5.276;2023-09-19T08:31:52;6.75;;;2.20;;
39016;SDS011;24784;45.582;5.276;2023-09-19T08:34:19;6.43;;;1.85;;
39016;SDS011;24784;45.582;5.276;2023-09-19T08:36:46;6.45;;;1.52;;
39016;SDS011;24784;45.582;5.276;2023-09-19T08:39:13;7.03;;;1.75;;
39016;SDS011;24784;45.582;5.276;2023-09-19T08:41:39;6.15;;;1.60;;
39016;SDS011;24784;45.582;5.276;2023-09-19T08:44:05;4.85;;;1.75;;
39016;SDS011;24784;45.582;5.276;2023-09-19T08:46:30;22.13;;;2.92;;
39016;SDS011;24784;45.582;5.276;2023-09-19T08:49:04;13.32;;;2.00;;
39016;SDS011;24784;45.582;5.276;2023-09-19T08:51:39;11.82;;;1.88;;
39016;SDS011;24784;45.582;5.276;2023-09-19T08:54:21;7.38;;;1.88;;
39016;SDS011;24784;45.582;5.276;2023-09-19T08:56:54;4.18;;;1.80;;
39016;SDS011;24784;45.582;5.276;2023-09-19T08:59:24;4.68;;;1.38;;
39016;SDS011;24784;45.582;5.276;2023-09-19T09:01:54;4.93;;;1.55;;
39016;SDS011;24784;45.582;5.276;2023-09-19T09:04:22;10.43;;;1.90;;
39016;SDS011;24784;45.582;5.276;2023-09-19T09:06:47;3.97;;;1.33;;
39016;SDS011;24784;45.582;5.276;2023-09-19T09:09:18;7.40;;;1.60;;
39016;SDS011;24784;45.582;5.276;2023-09-19T09:11:45;4.72;;;1.27;;
39016;SDS011;24784;45.582;5.276;2023-09-19T09:14:13;3.22;;;1.63;;
39016;SDS011;24784;45.582;5.276;2023-09-19T09:16:39;5.22;;;1.70;;
39016;SDS011;24784;45.582;5.276;2023-09-19T09:19:05;6.40;;;1.48;;
39016;SDS011;24784;45.582;5.276;2023-09-19T09:21:30;6.38;;;1.95;;
39016;SDS011;24784;45.582;5.276;2023-09-19T09:24:25;4.80;;;1.55;;
39016;SDS011;24784;45.582;5.276;2023-09-19T09:26:54;5.65;;;1.35;;
39016;SDS011;24784;45.582;5.276;2023-09-19T09:29:53;8.65;;;1.90;;
39016;SDS011;24784;45.582;5.276;2023-09-19T09:32:23;6.72;;;1.35;;
39016;SDS011;24784;45.582;5.276;2023-09-19T09:34:59;4.28;;;1.58;;
39016;SDS011;24784;45.582;5.276;2023-09-19T09:37:26;8.35;;;1.98;;
39016;SDS011;24784;45.582;5.276;2023-09-19T09:39:58;4.38;;;1.52;;
39016;SDS011;24784;45.582;5.276;2023-09-19T09:42:44;5.15;;;1.48;;
39016;SDS011;24784;45.582;5.276;2023-09-19T09:47:57;4.72;;;1.55;;
39016;SDS011;24784;45.582;5.276;2023-09-19T09:50:32;6.25;;;1.38;;
39016;SDS011;24784;45.582;5.276;2023-09-19T09:58:33;5.07;;;1.65;;
39016;SDS011;24784;45.582;5.276;2023-09-19T10:01:02;3.90;;;1.50;;
39016;SDS011;24784;45.582;5.276;2023-09-19T10:03:37;11.52;;;3.50;;
39016;SDS011;24784;45.582;5.276;2023-09-19T10:06:09;3.38;;;1.60;;
39016;SDS011;24784;45.582;5.276;2023-09-19T10:09:01;5.25;;;1.80;;
39016;SDS011;24784;45.582;5.276;2023-09-19T10:11:39;5.75;;;1.70;;
39016;SDS011;24784;45.582;5.276;2023-09-19T10:14:10;4.47;;;1.85;;
39016;SDS011;24784;45.582;5.276;2023-09-19T10:16:49;6.93;;;1.60;;
39016;SDS011;24784;45.582;5.276;2023-09-19T10:19:22;4.85;;;2.05;;
39016;SDS011;24784;45.582;5.276;2023-09-19T10:21:55;3.13;;;1.60;;
39016;SDS011;24784;45.582;5.276;2023-09-19T10:24:23;6.25;;;2.33;;
39016;SDS011;24784;45.582;5.276;2023-09-19T10:26:51;6.10;;;1.85;;
39016;SDS011;24784;45.582;5.276;2023-09-19T10:29:19;5.15;;;1.65;;
39016;SDS011;24784;45.582;5.276;2023-09-19T10:31:47;5.18;;;1.92;;
39016;SDS011;24784;45.582;5.276;2023-09-19T10:34:16;5.90;;;1.63;;
39016;SDS011;24784;45.582;5.276;2023-09-19T10:36:46;3.92;;;1.70;;
39016;SDS011;24784;45.582;5.276;2023-09-19T10:39:16;5.68;;;1.95;;
39016;SDS011;24784;45.582;5.276;2023-09-19T10:41:47;6.38;;;1.65;;
39016;SDS011;24784;45.582;5.276;2023-09-19T10:44:23;2.58;;;1.50;;
39016;SDS011;24784;45.582;5.276;2023-09-19T10:46:50;7.30;;;2.40;;
39016;SDS011;24784;45.582;5.276;2023-09-19T10:49:18;3.50;;;1.85;;
39016;SDS011;24784;45.582;5.276;2023-09-19T10:51:44;3.78;;;1.92;;
39016;SDS011;24784;45.582;5.276;2023-09-19T10:54:12;7.20;;;1.98;;
39016;SDS011;24784;45.582;5.276;2023-09-19T10:56:48;4.78;;;1.90;;
39016;SDS011;24784;45.582;5.276;2023-09-19T10:59:19;3.72;;;1.67;;
39016;SDS011;24784;45.582;5.276;2023-09-19T11:04:23;4.50;;;1.85;;
39016;SDS011;24784;45.582;5.276;2023-09-19T11:09:49;5.93;;;2.03;;
39016;SDS011;24784;45.582;5.276;2023-09-19T11:15:00;5.05;;;1.60;;
39016;SDS011;24784;45.582;5.276;2023-09-19T11:30:36;2.38;;;1.50;;
39016;SDS011;24784;45.582;5.276;2023-09-19T11:39:14;6.90;;;2.55;;
39016;SDS011;24784;45.582;5.276;2023-09-19T11:43:49;4.93;;;1.80;;
39016;SDS011;24784;45.582;5.276;2023-09-19T11:46:16;2.35;;;1.55;;
39016;SDS011;24784;45.582;5.276;2023-09-19T11:48:47;2.72;;;1.50;;
39016;SDS011;24784;45.582;5.276;2023-09-19T11:51:18;6.53;;;1.60;;
39016;SDS011;24784;45.582;5.276;2023-09-19T11:53:51;5.43;;;1.20;;
39016;SDS011;24784;45.582;5.276;2023-09-19T11:56:21;3.22;;;1.50;;
39016;SDS011;24784;45.582;5.276;2023-09-19T11:58:53;3.38;;;1.55;;
39016;SDS011;24784;45.582;5.276;2023-09-19T12:01:23;2.85;;;1.25;;
39016;SDS011;24784;45.582;5.276;2023-09-19T12:03:57;4.72;;;1.25;;
39016;SDS011;24784;45.582;5.276;2023-09-19T12:06:27;3.55;;;1.40;;
39016;SDS011;24784;45.582;5.276;2023-09-19T12:08:57;2.77;;;1.20;;
39016;SDS011;24784;45.582;5.276;2023-09-19T12:11:28;2.97;;;1.40;;
39016;SDS011;24784;45.582;5.276;2023-09-19T12:16:26;3.80;;;1.40;;
39016;SDS011;24784;45.582;5.276;2023-09-19T12:18:55;3.15;;;1.40;;
39016;SDS011;24784;45.582;5.276;2023-09-19T12:21:25;4.70;;;1.75;;
39016;SDS011;24784;45.582;5.276;2023-09-19T12:23:57;4.25;;;1.63;;
39016;SDS011;24784;45.582;5.276;2023-09-19T12:26:39;4.40;;;1.93;;
39016;SDS011;24784;45.582;5.276;2023-09-19T12:29:11;2.95;;;1.33;;
39016;SDS011;24784;45.582;5.276;2023-09-19T12:31:47;5.18;;;1.40;;
39016;SDS011;24784;45.582;5.276;2023-09-19T12:34:29;5.57;;;1.40;;
39016;SDS011;24784;45.582;5.276;2023-09-19T12:39:41;3.10;;;1.50;;
39016;SDS011;24784;45.582;5.276;2023-09-19T12:42:09;5.13;;;1.30;;
39016;SDS011;24784;45.582;5.276;2023-09-19T12:44:40;2.90;;;1.45;;
39016;SDS011;24784;45.582;5.276;2023-09-19T12:47:11;5.85;;;1.58;;
39016;SDS011;24784;45.582;5.276;2023-09-19T12:55:20;4.60;;;2.00;;
39016;SDS011;24784;45.582;5.276;2023-09-19T13:00:47;4.50;;;1.60;;
39016;SDS011;24784;45.582;5.276;2023-09-19T13:03:17;2.75;;;1.25;;
39016;SDS011;24784;45.582;5.276;2023-09-19T13:05:59;2.38;;;1.20;;
39016;SDS011;24784;45.582;5.276;2023-09-19T13:08:29;2.72;;;1.20;;
39016;SDS011;24784;45.582;5.276;2023-09-19T13:11:03;1.40;;;1.10;;
39016;SDS011;24784;45.582;5.276;2023-09-19T13:13:34;2.78;;;1.60;;
39016;SDS011;24784;45.582;5.276;2023-09-19T13:16:04;4.97;;;1.40;;
39016;SDS011;24784;45.582;5.276;2023-09-19T13:18:43;5.25;;;1.13;;
39016;SDS011;24784;45.582;5.276;2023-09-19T13:21:13;2.22;;;1.30;;
39016;SDS011;24784;45.582;5.276;2023-09-19T13:23:52;3.08;;;1.20;;
39016;SDS011;24784;45.582;5.276;2023-09-19T13:26:21;3.08;;;1.05;;
39016;SDS011;24784;45.582;5.276;2023-09-19T13:28:47;2.75;;;1.23;;
39016;SDS011;24784;45.582;5.276;2023-09-19T13:31:14;4.45;;;1.10;;
39016;SDS011;24784;45.582;5.276;2023-09-19T13:33:43;2.42;;;1.30;;
39016;SDS011;24784;45.582;5.276;2023-09-19T13:36:10;3.03;;;1.10;;
39016;SDS011;24784;45.582;5.276;2023-09-19T13:38:38;3.28;;;1.65;;
39016;SDS011;24784;45.582;5.276;2023-09-19T13:41:05;2.63;;;1.17;;
39016;SDS011;24784;45.582;5.276;2023-09-19T13:43:31;3.78;;;0.93;;
39016;SDS011;24784;45.582;5.276;2023-09-19T13:45:57;2.65;;;1.10;;
39016;SDS011;24784;45.582;5.276;2023-09-19T13:48:23;5.38;;;1.17;;
39016;SDS011;24784;45.582;5.276;2023-09-19T13:50:49;9.60;;;1.35;;
39016;SDS011;24784;45.582;5.276;2023-09-19T13:53:15;6.43;;;1.20;;
39016;SDS011;24784;45.582;5.276;2023-09-19T13:55:42;4.45;;;1.00;;
39016;SDS011;24784;45.582;5.276;2023-09-19T13:58:08;5.15;;;1.00;;
39016;SDS011;24784;45.582;5.276;2023-09-19T14:00:36;4.45;;;0.95;;
39016;SDS011;24784;45.582;5.276;2023-09-19T14:03:01;3.17;;;1.00;;
39016;SDS011;24784;45.582;5.276;2023-09-19T14:05:29;1.98;;;1.05;;
39016;SDS011;24784;45.582;5.276;2023-09-19T14:07:55;5.15;;;2.08;;
39016;SDS011;24784;45.582;5.276;2023-09-19T14:10:22;1.80;;;0.77;;
39016;SDS011;24784;45.582;5.276;2023-09-19T14:12:48;2.83;;;0.90;;
39016;SDS011;24784;45.582;5.276;2023-09-19T14:15:14;3.30;;;1.85;;
39016;SDS011;24784;45.582;5.276;2023-09-19T14:17:40;1.52;;;1.08;;
39016;SDS011;24784;45.582;5.276;2023-09-19T14:20:10;3.30;;;1.10;;
39016;SDS011;24784;45.582;5.276;2023-09-19T14:22:36;2.78;;;0.95;;
39016;SDS011;24784;45.582;5.276;2023-09-19T14:25:03;1.90;;;0.90;;
39016;SDS011;24784;45.582;5.276;2023-09-19T14:27:29;1.10;;;1.00;;
39016;SDS011;24784;45.582;5.276;2023-09-19T14:29:55;1.42;;;1.17;;
39016;SDS011;24784;45.582;5.276;2023-09-19T14:32:22;3.05;;;0.95;;
39016;SDS011;24784;45.582;5.276;2023-09-19T14:34:48;2.38;;;1.00;;
39016;SDS011;24784;45.582;5.276;2023-09-19T14:37:14;2.70;;;0.90;;
39016;SDS011;24784;45.582;5.276;2023-09-19T14:39:41;3.58;;;1.02;;
39016;SDS011;24784;45.582;5.276;2023-09-19T14:42:09;2.53;;;1.13;;
39016;SDS011;24784;45.582;5.276;2023-09-19T14:44:35;2.28;;;1.10;;
39016;SDS011;24784;45.582;5.276;2023-09-19T14:47:02;2.53;;;1.05;;
39016;SDS011;24784;45.582;5.276;2023-09-19T14:49:32;1.20;;;0.90;;
39016;SDS011;24784;45.582;5.276;2023-09-19T14:51:59;3.97;;;1.50;;
39016;SDS011;24784;45.582;5.276;2023-09-19T14:54:28;1.30;;;1.08;;
39016;SDS011;24784;45.582;5.276;2023-09-19T14:56:55;8.35;;;1.40;;
39016;SDS011;24784;45.582;5.276;2023-09-19T14:59:30;6.43;;;1.40;;
39016;SDS011;24784;45.582;5.276;2023-09-19T15:02:02;2.58;;;1.30;;
39016;SDS011;24784;45.582;5.276;2023-09-19T15:04:29;1.27;;;1.13;;
39016;SDS011;24784;45.582;5.276;2023-09-19T15:06:55;4.63;;;1.10;;
39016;SDS011;24784;45.582;5.276;2023-09-19T15:09:21;4.13;;;1.15;;
39016;SDS011;24784;45.582;5.276;2023-09-19T15:11:54;3.30;;;1.30;;
39016;SDS011;24784;45.582;5.276;2023-09-19T15:14:23;3.92;;;1.15;;
39016;SDS011;24784;45.582;5.276;2023-09-19T15:16:54;2.88;;;1.20;;
39016;SDS011;24784;45.582;5.276;2023-09-19T15:19:20;3.63;;;1.20;;
39016;SDS011;24784;45.582;5.276;2023-09-19T15:21:47;4.88;;;1.10;;
39016;SDS011;24784;45.582;5.276;2023-09-19T15:24:13;1.60;;;0.90;;
39016;SDS011;24784;45.582;5.276;2023-09-19T15:26:40;4.38;;;1.38;;
39016;SDS011;24784;45.582;5.276;2023-09-19T15:29:08;3.55;;;1.10;;
39016;SDS011;24784;45.582;5.276;2023-09-19T15:31:34;1.88;;;1.35;;
39016;SDS011;24784;45.582;5.276;2023-09-19T15:34:03;1.58;;;1.10;;
39016;SDS011;24784;45.582;5.276;2023-09-19T15:36:31;2.38;;;0.93;;
39016;SDS011;24784;45.582;5.276;2023-09-19T15:41:27;2.85;;;1.00;;
39016;SDS011;24784;45.582;5.276;2023-09-19T15:43:57;3.33;;;1.25;;
39016;SDS011;24784;45.582;5.276;2023-09-19T15:46:26;4.25;;;1.20;;
39016;SDS011;24784;45.582;5.276;2023-09-19T15:48:56;1.98;;;1.30;;
39016;SDS011;24784;45.582;5.276;2023-09-19T15:51:22;1.25;;;0.98;;
39016;SDS011;24784;45.582;5.276;2023-09-19T15:53:49;2.53;;;1.02;;
39016;SDS011;24784;45.582;5.276;2023-09-19T15:56:16;2.78;;;1.70;;
39016;SDS011;24784;45.582;5.276;2023-09-19T15:58:43;85.45;;;7.68;;